sensor_id;sensor_type;location;lat;lon;timestamp;pressure;altitude;pressure_sealevel;temperature;humidity
47366;BME280;33105;47.964;7.982;2023-03-14T00:01:48;95216.31;;;8.69;100.00
47366;BME280;33105;47.964;7.982;2023-03-14T00:04:49;95225.41;;;8.60;100.00
47366;BME280;33105;47.964;7.982;2023-03-14T00:07:50;95254.69;;;8.73;100.00
47366;BME280;33105;47.964;7.982;2023-03-14T00:10:51;95258.09;;;8.60;100.00
47366;BME280;33105;47.964;7.982;2023-03-14T00:13:53;95275.81;;;8.52;100.00
47366;BME280;33105;47.964;7.982;2023-03-14T00:16:54;95263.69;;;8.68;100.00
47366;BME280;33105;47.964;7.982;2023-03-14T00:19:55;95300.88;;;8.49;100.00
47366;BME280;33105;47.964;7.982;2023-03-14T00:22:56;95301.00;;;8.68;100.00
47366;BME280;33105;47.964;7.982;2023-03-14T00:26:02;95326.41;;;8.58;100.00
47366;BME280;33105;47.964;7.982;2023-03-14T00:29:03;95310.91;;;8.59;100.00
47366;BME280;33105;47.964;7.982;2023-03-14T00:32:04;95312.91;;;8.43;100.00
47366;BME280;33105;47.964;7.982;2023-03-14T00:35:06;95312.31;;;8.51;100.00
47366;BME280;33105;47.964;7.982;2023-03-14T00:38:08;95285.53;;;8.63;100.00
47366;BME280;33105;47.964;7.982;2023-03-14T00:41:14;95295.25;;;8.40;100.00
47366;BME280;33105;47.964;7.982;2023-03-14T00:44:16;95295.47;;;8.44;100.00
47366;BME280;33105;47.964;7.982;2023-03-14T00:47:17;95264.72;;;8.77;95.00
47366;BME280;33105;47.964;7.982;2023-03-14T00:50:18;95272.41;;;8.70;100.00
47366;BME280;33105;47.964;7.982;2023-03-14T00:53:20;95266.94;;;8.70;99.64
47366;BME280;33105;47.964;7.982;2023-03-14T00:56:21;95256.34;;;8.69;98.94
47366;BME280;33105;47.964;7.982;2023-03-14T00:59:23;95245.16;;;8.70;97.19
47366;BME280;33105;47.964;7.982;2023-03-14T01:02:24;95247.19;;;8.89;85.45
47366;BME280;33105;47.964;7.982;2023-03-14T01:05:25;95233.72;;;8.97;83.80
47366;BME280;33105;47.964;7.982;2023-03-14T01:08:26;95233.50;;;8.94;80.52
47366;BME280;33105;47.964;7.982;2023-03-14T01:11:32;95227.22;;;8.69;84.40
47366;BME280;33105;47.964;7.982;2023-03-14T01:14:33;95236.69;;;8.77;84.44
47366;BME280;33105;47.964;7.982;2023-03-14T01:17:34;95235.53;;;9.07;79.20
47366;BME280;33105;47.964;7.982;2023-03-14T01:20:36;95254.63;;;8.78;83.60
47366;BME280;33105;47.964;7.982;2023-03-14T01:23:38;95252.97;;;8.82;81.73
47366;BME280;33105;47.964;7.982;2023-03-14T01:26:39;95273.81;;;8.92;79.40
47366;BME280;33105;47.964;7.982;2023-03-14T01:29:41;95250.59;;;8.99;77.56
47366;BME280;33105;47.964;7.982;2023-03-14T01:32:43;95266.66;;;9.01;80.38
47366;BME280;33105;47.964;7.982;2023-03-14T01:35:44;95273.00;;;8.91;81.28
47366;BME280;33105;47.964;7.982;2023-03-14T01:38:45;95266.09;;;8.75;84.82
47366;BME280;33105;47.964;7.982;2023-03-14T01:41:49;95255.72;;;8.77;82.90
47366;BME280;33105;47.964;7.982;2023-03-14T01:44:59;95252.28;;;8.66;84.33
47366;BME280;33105;47.964;7.982;2023-03-14T01:48:01;95254.13;;;8.42;85.54
47366;BME280;33105;47.964;7.982;2023-03-14T01:51:06;95265.09;;;8.32;87.08
47366;BME280;33105;47.964;7.982;2023-03-14T01:57:27;95264.09;;;8.17;87.46
47366;BME280;33105;47.964;7.982;2023-03-14T02:00:30;95246.47;;;8.10;88.93
47366;BME280;33105;47.964;7.982;2023-03-14T02:03:37;95234.84;;;7.99;88.37
47366;BME280;33105;47.964;7.982;2023-03-14T02:06:48;95241.22;;;8.18;84.06
47366;BME280;33105;47.964;7.982;2023-03-14T02:09:53;95249.06;;;8.25;83.34
47366;BME280;33105;47.964;7.982;2023-03-14T02:13:01;95233.56;;;8.26;84.06
47366;BME280;33105;47.964;7.982;2023-03-14T02:16:22;95222.19;;;8.18;83.41
47366;BME280;33105;47.964;7.982;2023-03-14T02:23:18;95213.09;;;8.38;80.99
47366;BME280;33105;47.964;7.982;2023-03-14T02:26:31;95210.13;;;8.35;80.68
47366;BME280;33105;47.964;7.982;2023-03-14T02:29:41;95204.00;;;8.48;77.96
47366;BME280;33105;47.964;7.982;2023-03-14T02:32:47;95177.19;;;8.65;77.10
47366;BME280;33105;47.964;7.982;2023-03-14T02:35:56;95163.97;;;8.77;74.68
47366;BME280;33105;47.964;7.982;2023-03-14T02:42:06;95164.88;;;8.68;75.99
47366;BME280;33105;47.964;7.982;2023-03-14T02:48:16;95141.38;;;8.77;76.30
47366;BME280;33105;47.964;7.982;2023-03-14T02:51:20;95143.56;;;8.75;73.85
47366;BME280;33105;47.964;7.982;2023-03-14T02:54:23;95120.69;;;8.52;77.36
47366;BME280;33105;47.964;7.982;2023-03-14T02:57:25;95123.88;;;8.59;73.55
47366;BME280;33105;47.964;7.982;2023-03-14T03:00:27;95126.75;;;8.68;71.67
47366;BME280;33105;47.964;7.982;2023-03-14T03:03:28;95129.97;;;8.75;72.42
47366;BME280;33105;47.964;7.982;2023-03-14T03:06:29;95119.19;;;8.89;71.16
47366;BME280;33105;47.964;7.982;2023-03-14T03:09:30;95122.25;;;8.82;71.69
47366;BME280;33105;47.964;7.982;2023-03-14T03:12:31;95110.03;;;8.79;71.50
47366;BME280;33105;47.964;7.982;2023-03-14T03:15:33;95114.16;;;8.77;71.69
47366;BME280;33105;47.964;7.982;2023-03-14T03:18:34;95113.22;;;8.86;70.69
47366;BME280;33105;47.964;7.982;2023-03-14T03:21:35;95096.06;;;8.86;71.09
47366;BME280;33105;47.964;7.982;2023-03-14T03:24:36;95090.34;;;8.88;71.10
47366;BME280;33105;47.964;7.982;2023-03-14T03:27:38;95099.44;;;8.78;72.48
47366;BME280;33105;47.964;7.982;2023-03-14T03:30:40;95100.34;;;8.68;72.53
47366;BME280;33105;47.964;7.982;2023-03-14T03:33:42;95100.72;;;8.85;71.08
47366;BME280;33105;47.964;7.982;2023-03-14T03:36:43;95072.97;;;8.83;71.90
47366;BME280;33105;47.964;7.982;2023-03-14T03:39:46;95077.88;;;8.81;72.89
47366;BME280;33105;47.964;7.982;2023-03-14T03:42:48;95078.69;;;8.82;70.79
47366;BME280;33105;47.964;7.982;2023-03-14T03:45:50;95060.53;;;8.96;70.12
47366;BME280;33105;47.964;7.982;2023-03-14T03:48:55;95049.03;;;8.80;72.38
47366;BME280;33105;47.964;7.982;2023-03-14T03:51:57;95056.94;;;9.01;69.51
47366;BME280;33105;47.964;7.982;2023-03-14T03:54:59;95050.44;;;8.97;71.12
47366;BME280;33105;47.964;7.982;2023-03-14T03:58:02;95045.28;;;8.95;70.53
47366;BME280;33105;47.964;7.982;2023-03-14T04:01:05;95039.53;;;8.97;70.86
47366;BME280;33105;47.964;7.982;2023-03-14T04:04:07;95038.09;;;9.04;69.44
47366;BME280;33105;47.964;7.982;2023-03-14T04:07:08;95038.44;;;8.98;70.11
47366;BME280;33105;47.964;7.982;2023-03-14T04:10:11;95049.91;;;8.95;70.50
47366;BME280;33105;47.964;7.982;2023-03-14T04:13:16;95041.91;;;9.03;68.19
47366;BME280;33105;47.964;7.982;2023-03-14T04:16:25;95038.53;;;9.11;68.09
47366;BME280;33105;47.964;7.982;2023-03-14T04:19:32;95021.16;;;9.07;68.81
47366;BME280;33105;47.964;7.982;2023-03-14T04:22:33;95019.88;;;9.18;67.30
47366;BME280;33105;47.964;7.982;2023-03-14T04:25:35;95004.44;;;9.14;67.85
47366;BME280;33105;47.964;7.982;2023-03-14T04:28:39;94990.31;;;9.12;67.26
47366;BME280;33105;47.964;7.982;2023-03-14T04:31:41;94993.75;;;9.17;67.62
47366;BME280;33105;47.964;7.982;2023-03-14T04:34:43;94992.94;;;9.17;66.94
47366;BME280;33105;47.964;7.982;2023-03-14T04:37:44;94994.19;;;9.25;65.69
47366;BME280;33105;47.964;7.982;2023-03-14T04:40:47;94991.47;;;9.25;65.72
47366;BME280;33105;47.964;7.982;2023-03-14T04:43:50;94983.81;;;9.27;65.01
47366;BME280;33105;47.964;7.982;2023-03-14T04:46:51;95002.03;;;9.12;66.63
47366;BME280;33105;47.964;7.982;2023-03-14T04:49:52;94981.88;;;9.27;65.73
47366;BME280;33105;47.964;7.982;2023-03-14T04:52:54;94971.44;;;9.34;65.34
47366;BME280;33105;47.964;7.982;2023-03-14T04:55:56;94962.16;;;9.35;66.06
47366;BME280;33105;47.964;7.982;2023-03-14T04:59:00;94973.63;;;9.32;66.51
47366;BME280;33105;47.964;7.982;2023-03-14T05:02:16;94960.75;;;9.38;65.69
47366;BME280;33105;47.964;7.982;2023-03-14T05:05:30;94930.19;;;9.22;66.29
47366;BME280;33105;47.964;7.982;2023-03-14T05:09:06;94927.41;;;9.27;65.42
47366;BME280;33105;47.964;7.982;2023-03-14T05:12:10;94933.56;;;9.33;65.94
47366;BME280;33105;47.964;7.982;2023-03-14T05:15:38;94932.47;;;9.34;65.65
47366;BME280;33105;47.964;7.982;2023-03-14T05:19:02;94929.66;;;9.39;65.02
47366;BME280;33105;47.964;7.982;2023-03-14T05:22:15;94940.13;;;9.32;65.75
47366;BME280;33105;47.964;7.982;2023-03-14T05:25:35;94935.13;;;9.39;64.47
47366;BME280;33105;47.964;7.982;2023-03-14T05:29:02;94939.34;;;9.45;65.14
47366;BME280;33105;47.964;7.982;2023-03-14T05:32:14;94942.56;;;9.33;65.33
47366;BME280;33105;47.964;7.982;2023-03-14T05:35:30;94944.09;;;9.39;65.11
47366;BME280;33105;47.964;7.982;2023-03-14T05:38:31;94941.91;;;9.23;65.74
47366;BME280;33105;47.964;7.982;2023-03-14T05:41:59;94934.19;;;9.43;64.77
47366;BME280;33105;47.964;7.982;2023-03-14T05:45:10;94942.97;;;9.40;65.35
47366;BME280;33105;47.964;7.982;2023-03-14T05:48:24;94940.13;;;9.32;66.29
47366;BME280;33105;47.964;7.982;2023-03-14T05:51:37;94945.88;;;9.30;66.58
47366;BME280;33105;47.964;7.982;2023-03-14T05:54:58;94923.63;;;9.55;62.71
47366;BME280;33105;47.964;7.982;2023-03-14T05:58:22;94939.25;;;9.50;63.60
47366;BME280;33105;47.964;7.982;2023-03-14T06:01:40;94927.56;;;9.49;63.11
47366;BME280;33105;47.964;7.982;2023-03-14T06:04:47;94921.22;;;9.68;62.54
47366;BME280;33105;47.964;7.982;2023-03-14T06:07:49;94909.63;;;9.62;61.01
47366;BME280;33105;47.964;7.982;2023-03-14T06:10:51;94907.59;;;9.68;62.10
47366;BME280;33105;47.964;7.982;2023-03-14T06:13:53;94913.34;;;9.66;61.48
47366;BME280;33105;47.964;7.982;2023-03-14T06:16:54;94894.84;;;9.49;61.50
47366;BME280;33105;47.964;7.982;2023-03-14T06:19:57;94905.78;;;9.63;63.07
47366;BME280;33105;47.964;7.982;2023-03-14T06:22:59;94904.16;;;9.76;60.32
47366;BME280;33105;47.964;7.982;2023-03-14T06:26:00;94908.00;;;9.75;61.05
47366;BME280;33105;47.964;7.982;2023-03-14T06:29:02;94902.63;;;9.70;61.53
47366;BME280;33105;47.964;7.982;2023-03-14T06:32:04;94912.25;;;9.81;60.13
47366;BME280;33105;47.964;7.982;2023-03-14T06:35:06;94895.81;;;9.86;60.67
47366;BME280;33105;47.964;7.982;2023-03-14T06:38:11;94911.34;;;9.85;58.83
47366;BME280;33105;47.964;7.982;2023-03-14T06:41:13;94900.25;;;9.82;58.88
47366;BME280;33105;47.964;7.982;2023-03-14T06:44:18;94905.69;;;9.96;59.45
47366;BME280;33105;47.964;7.982;2023-03-14T06:47:19;94907.31;;;9.97;59.68
47366;BME280;33105;47.964;7.982;2023-03-14T06:50:21;94887.69;;;9.95;59.07
47366;BME280;33105;47.964;7.982;2023-03-14T06:53:24;94889.72;;;10.03;59.00
47366;BME280;33105;47.964;7.982;2023-03-14T06:56:26;94891.66;;;10.02;58.08
47366;BME280;33105;47.964;7.982;2023-03-14T06:59:29;94905.25;;;10.16;57.10
47366;BME280;33105;47.964;7.982;2023-03-14T07:02:30;94894.06;;;10.17;57.39
47366;BME280;33105;47.964;7.982;2023-03-14T07:05:34;94918.84;;;10.21;56.99
47366;BME280;33105;47.964;7.982;2023-03-14T07:08:38;94910.97;;;10.19;58.74
47366;BME280;33105;47.964;7.982;2023-03-14T07:11:40;94913.59;;;10.25;57.51
47366;BME280;33105;47.964;7.982;2023-03-14T07:14:42;94909.94;;;10.29;58.17
47366;BME280;33105;47.964;7.982;2023-03-14T07:17:43;94908.53;;;10.32;58.10
47366;BME280;33105;47.964;7.982;2023-03-14T07:20:45;94915.81;;;10.09;58.80
47366;BME280;33105;47.964;7.982;2023-03-14T07:23:48;94916.00;;;10.26;58.71
47366;BME280;33105;47.964;7.982;2023-03-14T07:26:49;94922.47;;;10.44;56.55
47366;BME280;33105;47.964;7.982;2023-03-14T07:29:51;94920.56;;;10.31;57.60
47366;BME280;33105;47.964;7.982;2023-03-14T07:32:53;94931.78;;;10.29;58.01
47366;BME280;33105;47.964;7.982;2023-03-14T07:35:58;94935.59;;;10.42;58.93
47366;BME280;33105;47.964;7.982;2023-03-14T07:38:59;94935.91;;;10.40;57.94
47366;BME280;33105;47.964;7.982;2023-03-14T07:42:00;94936.22;;;10.52;58.10
47366;BME280;33105;47.964;7.982;2023-03-14T07:45:05;94947.94;;;10.53;59.35
47366;BME280;33105;47.964;7.982;2023-03-14T07:48:07;94935.19;;;10.62;59.30
47366;BME280;33105;47.964;7.982;2023-03-14T07:51:08;94950.94;;;10.65;59.59
47366;BME280;33105;47.964;7.982;2023-03-14T07:54:10;94947.09;;;10.66;60.58
47366;BME280;33105;47.964;7.982;2023-03-14T07:57:11;94958.31;;;10.65;60.89
47366;BME280;33105;47.964;7.982;2023-03-14T08:00:13;94964.41;;;10.62;61.16
47366;BME280;33105;47.964;7.982;2023-03-14T08:03:17;94963.81;;;10.51;61.90
47366;BME280;33105;47.964;7.982;2023-03-14T08:06:19;94964.22;;;10.58;62.09
47366;BME280;33105;47.964;7.982;2023-03-14T08:09:20;94960.06;;;10.61;62.48
47366;BME280;33105;47.964;7.982;2023-03-14T08:12:21;94963.72;;;10.56;63.08
47366;BME280;33105;47.964;7.982;2023-03-14T08:15:23;94973.03;;;10.28;62.00
47366;BME280;33105;47.964;7.982;2023-03-14T08:18:24;94975.91;;;10.17;64.73
47366;BME280;33105;47.964;7.982;2023-03-14T08:21:25;94995.31;;;10.02;64.59
47366;BME280;33105;47.964;7.982;2023-03-14T08:24:27;94999.47;;;10.13;65.20
47366;BME280;33105;47.964;7.982;2023-03-14T08:27:28;95000.28;;;10.14;64.08
47366;BME280;33105;47.964;7.982;2023-03-14T08:30:29;95007.53;;;10.05;65.01
47366;BME280;33105;47.964;7.982;2023-03-14T08:33:31;95019.94;;;9.97;65.92
47366;BME280;33105;47.964;7.982;2023-03-14T08:36:32;95020.03;;;9.92;65.90
47366;BME280;33105;47.964;7.982;2023-03-14T08:39:34;95005.66;;;9.73;65.75
47366;BME280;33105;47.964;7.982;2023-03-14T08:42:39;95020.41;;;9.72;67.46
47366;BME280;33105;47.964;7.982;2023-03-14T08:45:41;95023.63;;;9.74;67.23
47366;BME280;33105;47.964;7.982;2023-03-14T08:48:42;95032.47;;;9.84;68.23
47366;BME280;33105;47.964;7.982;2023-03-14T08:51:43;95036.53;;;9.87;69.23
47366;BME280;33105;47.964;7.982;2023-03-14T08:54:45;95035.13;;;10.03;67.31
47366;BME280;33105;47.964;7.982;2023-03-14T08:57:46;95030.75;;;9.88;69.02
47366;BME280;33105;47.964;7.982;2023-03-14T09:00:47;95034.19;;;9.94;69.49
47366;BME280;33105;47.964;7.982;2023-03-14T09:03:48;95031.81;;;10.06;70.77
47366;BME280;33105;47.964;7.982;2023-03-14T09:06:50;95030.44;;;10.22;70.62
47366;BME280;33105;47.964;7.982;2023-03-14T09:09:51;95020.75;;;10.57;69.36
47366;BME280;33105;47.964;7.982;2023-03-14T09:12:52;95027.97;;;10.89;69.86
47366;BME280;33105;47.964;7.982;2023-03-14T09:15:55;95014.81;;;11.05;65.90
47366;BME280;33105;47.964;7.982;2023-03-14T09:18:56;95027.38;;;11.06;67.24
47366;BME280;33105;47.964;7.982;2023-03-14T09:22:00;95029.03;;;10.80;67.08
47366;BME280;33105;47.964;7.982;2023-03-14T09:25:03;95028.81;;;10.76;66.50
47366;BME280;33105;47.964;7.982;2023-03-14T09:28:04;95035.22;;;10.58;67.96
47366;BME280;33105;47.964;7.982;2023-03-14T09:31:07;95022.94;;;10.69;66.23
47366;BME280;33105;47.964;7.982;2023-03-14T09:34:09;95015.91;;;10.54;66.35
47366;BME280;33105;47.964;7.982;2023-03-14T09:37:10;95013.75;;;10.51;65.95
47366;BME280;33105;47.964;7.982;2023-03-14T09:40:18;95029.66;;;10.36;67.35
47366;BME280;33105;47.964;7.982;2023-03-14T09:43:22;95038.31;;;10.24;68.16
47366;BME280;33105;47.964;7.982;2023-03-14T09:46:25;95036.25;;;10.02;72.85
47366;BME280;33105;47.964;7.982;2023-03-14T09:49:30;95045.03;;;9.67;75.96
47366;BME280;33105;47.964;7.982;2023-03-14T09:52:35;95040.34;;;9.53;75.02
47366;BME280;33105;47.964;7.982;2023-03-14T09:55:38;95049.16;;;9.13;78.50
47366;BME280;33105;47.964;7.982;2023-03-14T09:58:41;95044.03;;;8.88;79.02
47366;BME280;33105;47.964;7.982;2023-03-14T10:01:44;95068.63;;;8.59;82.98
47366;BME280;33105;47.964;7.982;2023-03-14T10:04:47;95071.31;;;8.40;82.07
47366;BME280;33105;47.964;7.982;2023-03-14T10:07:48;95058.53;;;8.11;86.07
47366;BME280;33105;47.964;7.982;2023-03-14T10:10:50;95073.31;;;8.00;89.11
47366;BME280;33105;47.964;7.982;2023-03-14T10:14:07;95085.88;;;8.20;87.70
47366;BME280;33105;47.964;7.982;2023-03-14T10:17:12;95089.63;;;8.00;88.70
47366;BME280;33105;47.964;7.982;2023-03-14T10:20:26;95088.44;;;7.82;90.05
47366;BME280;33105;47.964;7.982;2023-03-14T10:23:34;95081.63;;;7.85;89.19
47366;BME280;33105;47.964;7.982;2023-03-14T10:26:36;95088.44;;;7.82;89.80
47366;BME280;33105;47.964;7.982;2023-03-14T10:29:52;95077.56;;;7.82;89.23
47366;BME280;33105;47.964;7.982;2023-03-14T10:32:54;95093.69;;;7.69;90.37
47366;BME280;33105;47.964;7.982;2023-03-14T10:39:22;95105.53;;;7.49;92.75
47366;BME280;33105;47.964;7.982;2023-03-14T10:42:28;95094.63;;;7.54;91.88
47366;BME280;33105;47.964;7.982;2023-03-14T10:45:41;95121.69;;;7.35;100.00
47366;BME280;33105;47.964;7.982;2023-03-14T10:48:44;95110.97;;;7.49;100.00
47366;BME280;33105;47.964;7.982;2023-03-14T10:51:46;95119.50;;;7.37;100.00
47366;BME280;33105;47.964;7.982;2023-03-14T10:59:04;95132.03;;;7.28;100.00
47366;BME280;33105;47.964;7.982;2023-03-14T11:05:43;95139.03;;;7.39;100.00
47366;BME280;33105;47.964;7.982;2023-03-14T11:08:53;95134.88;;;7.52;100.00
47366;BME280;33105;47.964;7.982;2023-03-14T11:12:08;95137.31;;;7.54;100.00
47366;BME280;33105;47.964;7.982;2023-03-14T11:15:35;95156.31;;;7.54;100.00
47366;BME280;33105;47.964;7.982;2023-03-14T11:22:21;95161.75;;;7.54;100.00
47366;BME280;33105;47.964;7.982;2023-03-14T11:25:53;95191.69;;;7.48;100.00
47366;BME280;33105;47.964;7.982;2023-03-14T11:29:02;95207.97;;;7.48;100.00
47366;BME280;33105;47.964;7.982;2023-03-14T11:32:33;95213.66;;;7.52;100.00
47366;BME280;33105;47.964;7.982;2023-03-14T11:38:50;95218.78;;;7.64;100.00
47366;BME280;33105;47.964;7.982;2023-03-14T11:41:53;95219.78;;;7.78;100.00
47366;BME280;33105;47.964;7.982;2023-03-14T11:44:55;95307.13;;;7.56;100.00
47366;BME280;33105;47.964;7.982;2023-03-14T11:48:20;95384.16;;;5.62;95.73
47366;BME280;33105;47.964;7.982;2023-03-14T11:51:36;95397.03;;;4.93;100.00
47366;BME280;33105;47.964;7.982;2023-03-14T11:54:43;95439.66;;;4.81;100.00
47366;BME280;33105;47.964;7.982;2023-03-14T11:57:50;95463.25;;;4.85;100.00
47366;BME280;33105;47.964;7.982;2023-03-14T12:00:54;95456.91;;;4.74;100.00
47366;BME280;33105;47.964;7.982;2023-03-14T12:07:39;95496.72;;;4.79;100.00
47366;BME280;33105;47.964;7.982;2023-03-14T12:10:49;95494.44;;;4.93;100.00
47366;BME280;33105;47.964;7.982;2023-03-14T12:13:53;95512.84;;;4.96;100.00
47366;BME280;33105;47.964;7.982;2023-03-14T12:17:21;95525.16;;;5.08;100.00
47366;BME280;33105;47.964;7.982;2023-03-14T12:21:01;95529.19;;;5.06;100.00
47366;BME280;33105;47.964;7.982;2023-03-14T12:25:13;95551.09;;;5.04;100.00
47366;BME280;33105;47.964;7.982;2023-03-14T12:36:53;95576.16;;;5.22;100.00
47366;BME280;33105;47.964;7.982;2023-03-14T13:16:38;95607.03;;;6.27;97.80
47366;BME280;33105;47.964;7.982;2023-03-14T13:19:39;95630.19;;;6.02;90.50
47366;BME280;33105;47.964;7.982;2023-03-14T13:23:18;95655.91;;;5.63;84.86
47366;BME280;33105;47.964;7.982;2023-03-14T13:44:05;95669.09;;;6.18;78.29
47366;BME280;33105;47.964;7.982;2023-03-14T13:48:09;95677.31;;;5.96;78.90
47366;BME280;33105;47.964;7.982;2023-03-14T13:57:58;95696.16;;;5.81;77.53
47366;BME280;33105;47.964;7.982;2023-03-14T14:07:32;95707.38;;;6.27;71.88
47366;BME280;33105;47.964;7.982;2023-03-14T14:14:58;95716.28;;;6.22;73.25
47366;BME280;33105;47.964;7.982;2023-03-14T14:18:06;95717.19;;;6.33;71.27
47366;BME280;33105;47.964;7.982;2023-03-14T14:31:21;95743.19;;;6.29;74.22
47366;BME280;33105;47.964;7.982;2023-03-14T14:34:21;95745.91;;;6.29;74.42
47366;BME280;33105;47.964;7.982;2023-03-14T14:37:29;95744.94;;;6.45;73.00
47366;BME280;33105;47.964;7.982;2023-03-14T14:40:31;95753.13;;;6.50;72.49
47366;BME280;33105;47.964;7.982;2023-03-14T14:43:36;95747.56;;;6.72;70.34
47366;BME280;33105;47.964;7.982;2023-03-14T14:46:40;95753.06;;;6.82;69.97
47366;BME280;33105;47.964;7.982;2023-03-14T14:49:41;95754.31;;;6.64;69.69
47366;BME280;33105;47.964;7.982;2023-03-14T14:52:44;95752.25;;;6.81;71.65
47366;BME280;33105;47.964;7.982;2023-03-14T14:55:45;95732.41;;;7.33;67.52
47366;BME280;33105;47.964;7.982;2023-03-14T14:58:50;95751.72;;;7.42;68.23
47366;BME280;33105;47.964;7.982;2023-03-14T15:01:55;95739.19;;;7.36;68.74
47366;BME280;33105;47.964;7.982;2023-03-14T15:04:56;95744.31;;;7.27;65.57
47366;BME280;33105;47.964;7.982;2023-03-14T15:07:58;95748.53;;;6.93;66.21
47366;BME280;33105;47.964;7.982;2023-03-14T15:10:59;95743.75;;;7.15;65.74
47366;BME280;33105;47.964;7.982;2023-03-14T15:14:00;95743.47;;;7.16;66.87
47366;BME280;33105;47.964;7.982;2023-03-14T15:17:02;95739.47;;;7.34;64.85
47366;BME280;33105;47.964;7.982;2023-03-14T15:20:15;95722.91;;;7.46;65.07
47366;BME280;33105;47.964;7.982;2023-03-14T15:23:19;95710.22;;;7.67;62.75
47366;BME280;33105;47.964;7.982;2023-03-14T15:26:23;95711.28;;;7.66;61.35
47366;BME280;33105;47.964;7.982;2023-03-14T15:29:25;95716.19;;;7.64;61.89
47366;BME280;33105;47.964;7.982;2023-03-14T15:32:26;95718.06;;;7.68;61.92
47366;BME280;33105;47.964;7.982;2023-03-14T15:35:28;95715.31;;;7.53;65.20
47366;BME280;33105;47.964;7.982;2023-03-14T15:38:29;95711.00;;;7.67;65.27
47366;BME280;33105;47.964;7.982;2023-03-14T15:41:30;95703.97;;;7.81;62.55
47366;BME280;33105;47.964;7.982;2023-03-14T15:44:32;95701.22;;;7.61;65.52
47366;BME280;33105;47.964;7.982;2023-03-14T15:47:33;95696.00;;;7.39;63.73
47366;BME280;33105;47.964;7.982;2023-03-14T15:50:34;95697.63;;;7.45;65.99
47366;BME280;33105;47.964;7.982;2023-03-14T15:53:35;95702.00;;;7.51;65.95
47366;BME280;33105;47.964;7.982;2023-03-14T15:56:40;95715.63;;;7.57;65.89
47366;BME280;33105;47.964;7.982;2023-03-14T15:59:41;95712.84;;;7.46;68.02
47366;BME280;33105;47.964;7.982;2023-03-14T16:02:42;95710.13;;;7.46;65.62
47366;BME280;33105;47.964;7.982;2023-03-14T16:05:43;95732.44;;;7.48;62.60
47366;BME280;33105;47.964;7.982;2023-03-14T16:08:45;95737.31;;;7.46;64.46
47366;BME280;33105;47.964;7.982;2023-03-14T16:11:46;95745.44;;;7.36;64.79
47366;BME280;33105;47.964;7.982;2023-03-14T16:14:47;95743.03;;;7.50;61.75
47366;BME280;33105;47.964;7.982;2023-03-14T16:17:52;95750.91;;;7.41;62.66
47366;BME280;33105;47.964;7.982;2023-03-14T16:20:59;95750.09;;;7.41;64.51
47366;BME280;33105;47.964;7.982;2023-03-14T16:24:00;95757.69;;;7.39;63.63
47366;BME280;33105;47.964;7.982;2023-03-14T16:27:03;95756.31;;;7.36;64.69
47366;BME280;33105;47.964;7.982;2023-03-14T16:30:05;95763.59;;;7.26;65.02
47366;BME280;33105;47.964;7.982;2023-03-14T16:33:06;95754.59;;;7.15;66.77
47366;BME280;33105;47.964;7.982;2023-03-14T16:36:11;95788.28;;;7.14;68.02
47366;BME280;33105;47.964;7.982;2023-03-14T16:39:12;95796.72;;;6.75;70.08
47366;BME280;33105;47.964;7.982;2023-03-14T16:47:37;95829.59;;;6.42;74.47
47366;BME280;33105;47.964;7.982;2023-03-14T16:51:33;95823.59;;;6.40;75.31
47366;BME280;33105;47.964;7.982;2023-03-14T16:54:34;95839.88;;;6.40;75.48
47366;BME280;33105;47.964;7.982;2023-03-14T17:02:21;95857.44;;;6.32;76.32
47366;BME280;33105;47.964;7.982;2023-03-14T17:10:34;95887.25;;;6.05;77.07
47366;BME280;33105;47.964;7.982;2023-03-14T17:13:36;95897.88;;;6.34;76.28
47366;BME280;33105;47.964;7.982;2023-03-14T17:16:38;95879.81;;;6.18;77.17
47366;BME280;33105;47.964;7.982;2023-03-14T17:19:39;95888.66;;;6.35;74.98
47366;BME280;33105;47.964;7.982;2023-03-14T17:22:46;95895.84;;;6.24;76.87
47366;BME280;33105;47.964;7.982;2023-03-14T17:25:48;95902.66;;;6.27;76.42
47366;BME280;33105;47.964;7.982;2023-03-14T17:28:50;95918.03;;;6.16;77.00
47366;BME280;33105;47.964;7.982;2023-03-14T17:31:51;95919.22;;;6.03;77.80
47366;BME280;33105;47.964;7.982;2023-03-14T17:34:53;95921.31;;;5.96;76.62
47366;BME280;33105;47.964;7.982;2023-03-14T17:37:54;95928.00;;;5.89;77.36
47366;BME280;33105;47.964;7.982;2023-03-14T17:40:58;95935.06;;;5.90;77.35
47366;BME280;33105;47.964;7.982;2023-03-14T17:44:03;95935.53;;;5.87;77.76
47366;BME280;33105;47.964;7.982;2023-03-14T17:47:06;95952.94;;;5.69;76.86
47366;BME280;33105;47.964;7.982;2023-03-14T17:51:11;95947.06;;;5.77;77.02
47366;BME280;33105;47.964;7.982;2023-03-14T17:58:58;95961.59;;;5.71;75.84
47366;BME280;33105;47.964;7.982;2023-03-14T18:02:03;95970.19;;;5.63;74.87
47366;BME280;33105;47.964;7.982;2023-03-14T18:10:46;95995.78;;;5.72;72.04
47366;BME280;33105;47.964;7.982;2023-03-14T18:13:47;95994.91;;;5.50;72.51
47366;BME280;33105;47.964;7.982;2023-03-14T18:16:48;96006.00;;;5.48;72.24
47366;BME280;33105;47.964;7.982;2023-03-14T18:19:51;96000.91;;;5.52;71.40
47366;BME280;33105;47.964;7.982;2023-03-14T18:22:56;96006.16;;;5.58;70.58
47366;BME280;33105;47.964;7.982;2023-03-14T18:26:14;96010.53;;;5.81;68.68
47366;BME280;33105;47.964;7.982;2023-03-14T18:29:16;96004.09;;;5.65;69.57
47366;BME280;33105;47.964;7.982;2023-03-14T18:32:17;96013.09;;;5.88;69.43
47366;BME280;33105;47.964;7.982;2023-03-14T18:35:18;96012.38;;;5.92;69.20
47366;BME280;33105;47.964;7.982;2023-03-14T18:38:19;96022.44;;;5.80;71.24
47366;BME280;33105;47.964;7.982;2023-03-14T18:41:22;96014.75;;;5.72;70.90
47366;BME280;33105;47.964;7.982;2023-03-14T18:44:23;96011.66;;;5.63;71.67
47366;BME280;33105;47.964;7.982;2023-03-14T18:52:19;96023.72;;;5.56;71.32
47366;BME280;33105;47.964;7.982;2023-03-14T18:55:21;96028.56;;;5.54;70.75
47366;BME280;33105;47.964;7.982;2023-03-14T18:58:22;96032.75;;;5.44;71.05
47366;BME280;33105;47.964;7.982;2023-03-14T19:01:28;96034.66;;;5.61;69.03
47366;BME280;33105;47.964;7.982;2023-03-14T19:04:30;96037.75;;;5.53;70.23
47366;BME280;33105;47.964;7.982;2023-03-14T19:07:32;96040.88;;;5.61;69.37